Time;durP1;ratioP1;P1;durP2;ratioP2;P2;SDS_P1;SDS_P2;PMS_P1;PMS_P2;Temp;Humidity;BMP_temperature;BMP_pressure;BME280_temperature;BME280_humidity;BME280_pressure;Samples;Min_cycle;Max_cycle;Signal;HPM_P1;HPM_P2
2022/05/04 00:01:20;;;;;;;8.67;7.03;;;;;;;15.75;57.67;97386.94;5004912;28;20636;-70
2022/05/04 00:03:45;;;;;;;7.20;6.50;;;;;;;15.78;57.35;97383.94;5012644;28;20180;-69
2022/05/04 00:06:11;;;;;;;10.03;6.60;;;;;;;15.79;57.52;97382.13;5009834;28;20177;-71
2022/05/04 00:08:37;;;;;;;9.27;7.30;;;;;;;15.64;58.01;97379.44;4990082;28;20234;-69
2022/05/04 00:11:04;;;;;;;7.90;6.60;;;;;;;15.78;57.64;97386.56;5012714;28;20207;-72
2022/05/04 00:13:31;;;;;;;7.13;6.43;;;;;;;15.90;57.51;97383.50;4990294;28;20949;-71
2022/05/04 00:15:57;;;;;;;7.73;6.93;;;;;;;15.90;57.11;97380.88;5010813;28;20880;-69
2022/05/04 00:18:23;;;;;;;7.47;6.40;;;;;;;15.83;57.05;97380.75;4994419;28;20483;-68
2022/05/04 00:20:48;;;;;;;7.80;6.70;;;;;;;15.76;57.13;97379.84;5014748;28;20466;-70
2022/05/04 00:23:14;;;;;;;8.87;6.30;;;;;;;15.79;56.77;97372.38;5012132;28;20190;-71
2022/05/04 00:25:40;;;;;;;6.93;6.30;;;;;;;15.80;57.25;97379.28;4963272;28;20199;-70
2022/05/04 00:28:05;;;;;;;7.50;6.80;;;;;;;15.86;57.41;97371.69;4986820;28;20239;-70
2022/05/04 00:30:31;;;;;;;7.53;6.80;;;;;;;15.89;56.80;97380.06;5013165;28;20180;-69
2022/05/04 00:32:59;;;;;;;11.83;7.13;;;;;;;15.77;57.16;97384.94;4994189;28;20243;-70
2022/05/04 00:35:24;;;;;;;8.03;6.70;;;;;;;15.68;57.16;97387.88;4978866;28;20504;-70
2022/05/04 00:37:50;;;;;;;7.47;6.57;;;;;;;15.72;56.74;97382.03;5009461;28;20459;-71
2022/05/04 00:40:15;;;;;;;9.27;6.47;;;;;;;15.72;56.33;97379.41;5012772;28;20188;-70
2022/05/04 00:42:41;;;;;;;13.00;6.57;;;;;;;15.73;56.45;97378.41;5010061;28;20193;-70
2022/05/04 00:45:06;;;;;;;9.73;7.00;;;;;;;15.76;56.36;97383.28;5010026;28;20188;-69
2022/05/04 00:47:32;;;;;;;7.60;6.70;;;;;;;15.76;55.96;97378.00;5011923;28;20176;-70
2022/05/04 00:50:04;;;;;;;8.87;6.27;;;;;;;15.47;57.13;97379.63;4994699;28;20212;-69
2022/05/04 00:52:34;;;;;;;7.53;6.10;;;;;;;15.53;57.15;97370.16;4994446;28;20686;-70
2022/05/04 00:55:00;;;;;;;6.63;6.03;;;;;;;15.52;56.95;97363.25;5001119;28;20935;-72
2022/05/04 01:00:11;;;;;;;11.97;6.97;;;;;;;15.27;58.18;97370.53;4997108;28;20442;-70
2022/05/04 01:02:40;;;;;;;8.20;6.97;;;;;;;15.40;57.23;97373.41;5010075;28;20949;-69
2022/05/04 01:05:10;;;;;;;7.77;7.07;;;;;;;15.31;57.63;97367.38;5010651;28;20439;-71
2022/05/04 01:07:37;;;;;;;7.47;6.77;;;;;;;15.47;57.28;97373.50;5011579;28;20466;-70
2022/05/04 01:10:04;;;;;;;7.87;7.07;;;;;;;15.58;57.21;97364.34;4974946;28;20783;-70
2022/05/04 01:12:31;;;;;;;8.10;7.20;;;;;;;15.65;56.79;97362.59;5009425;28;20958;-70
2022/05/04 01:14:57;;;;;;;7.20;6.57;;;;;;;15.50;57.16;97363.41;5011438;28;20797;-72
2022/05/04 01:17:23;;;;;;;7.23;6.60;;;;;;;15.51;57.19;97369.53;4992688;28;20427;-69
2022/05/04 01:19:48;;;;;;;8.40;7.50;;;;;;;15.30;57.34;97364.91;5007545;28;20445;-69
2022/05/04 01:22:13;;;;;;;7.63;6.33;;;;;;;15.26;57.52;97355.69;5012365;28;20184;-70
2022/05/04 01:24:39;;;;;;;10.23;6.30;;;;;;;15.36;57.48;97356.31;5010456;28;20650;-70
2022/05/04 01:27:11;;;;;;;7.60;6.90;;;;;;;15.41;57.49;97363.69;4981688;28;20230;-67
2022/05/04 01:29:36;;;;;;;8.20;7.23;;;;;;;15.51;57.20;97354.47;4988592;28;20550;-70
2022/05/04 01:32:02;;;;;;;7.57;6.40;;;;;;;15.59;56.93;97365.97;5010332;28;20467;-70
2022/05/04 01:34:28;;;;;;;7.70;7.00;;;;;;;15.62;57.02;97360.34;5004691;28;20607;-70
2022/05/04 01:36:53;;;;;;;7.97;7.23;;;;;;;15.64;56.72;97363.59;5008385;28;20188;-69
2022/05/04 01:39:19;;;;;;;7.70;7.00;;;;;;;15.42;57.23;97360.03;5010776;28;20204;-69
2022/05/04 01:42:02;;;;;;;7.37;6.77;;;;;;;15.29;57.55;97363.28;5011282;28;20188;-72
2022/05/04 01:44:28;;;;;;;11.43;6.57;;;;;;;15.16;56.81;97366.53;5011255;28;20590;-70
2022/05/04 01:46:54;;;;;;;11.27;6.60;;;;;;;15.17;57.46;97366.34;5008678;28;20431;-70
2022/05/04 01:49:19;;;;;;;10.47;6.23;;;;;;;15.15;57.65;97376.25;5010445;28;20796;-70
2022/05/04 01:51:45;;;;;;;6.87;6.10;;;;;;;15.14;57.54;97369.34;4993630;28;20243;-71
2022/05/04 01:54:10;;;;;;;10.10;6.90;;;;;;;15.10;57.74;97373.34;5010666;28;20181;-69
2022/05/04 01:56:36;;;;;;;7.97;7.03;;;;;;;15.11;57.57;97368.88;5008338;28;20669;-70
2022/05/04 01:59:01;;;;;;;7.40;6.60;;;;;;;15.07;58.05;97378.13;5010194;28;20208;-73
2022/05/04 02:01:28;;;;;;;8.50;6.50;;;;;;;14.95;57.99;97381.19;5010753;28;20323;-70
2022/05/04 02:03:53;;;;;;;8.87;6.90;;;;;;;14.88;58.17;97383.69;5010430;28;20676;-72
2022/05/04 02:06:19;;;;;;;10.40;7.20;;;;;;;14.92;58.33;97380.72;5010434;28;20432;-71
2022/05/04 02:08:46;;;;;;;7.60;6.30;;;;;;;14.93;58.11;97377.09;5010224;28;20203;-70
2022/05/04 02:11:11;;;;;;;7.83;7.13;;;;;;;15.01;57.68;97377.03;5010108;28;20238;-71
2022/05/04 02:13:37;;;;;;;7.70;6.50;;;;;;;15.04;58.03;97379.31;4993272;28;20981;-71
2022/05/04 02:16:03;;;;;;;9.33;7.30;;;;;;;15.01;58.11;97377.03;4994536;28;20187;-71
2022/05/04 02:18:29;;;;;;;8.90;7.13;;;;;;;15.03;58.13;97377.66;5010376;28;20261;-71
2022/05/04 02:20:54;;;;;;;8.70;6.97;;;;;;;15.11;58.05;97369.72;5013127;28;20431;-71
2022/05/04 02:23:19;;;;;;;9.60;7.43;;;;;;;15.11;58.07;97371.50;5007939;28;20196;-71
2022/05/04 02:25:46;;;;;;;7.67;7.00;;;;;;;15.17;57.54;97368.97;5010601;28;20184;-73
2022/05/04 02:28:11;;;;;;;9.93;7.10;;;;;;;15.22;57.83;97378.19;5009894;28;20216;-72
2022/05/04 02:30:36;;;;;;;10.13;7.50;;;;;;;15.20;58.18;97376.56;5008017;28;20435;-71
2022/05/04 02:33:02;;;;;;;7.70;7.00;;;;;;;15.13;58.39;97369.53;5000407;28;20205;-70
2022/05/04 02:38:11;;;;;;;7.83;7.13;;;;;;;15.13;58.06;97367.69;5009504;28;20298;-71
2022/05/04 02:40:37;;;;;;;10.00;7.50;;;;;;;15.20;58.34;97373.06;4976506;28;20525;-71
2022/05/04 02:43:04;;;;;;;9.00;6.97;;;;;;;15.31;57.65;97374.47;5009931;28;20269;-70
2022/05/04 02:45:30;;;;;;;7.40;6.63;;;;;;;15.38;57.84;97374.59;5003409;28;20623;-69
2022/05/04 02:47:55;;;;;;;8.63;7.73;;;;;;;15.25;57.66;97375.22;5009989;28;20566;-69
2022/05/04 02:50:21;;;;;;;8.77;7.80;;;;;;;15.15;58.26;97375.44;5002162;28;20510;-69
2022/05/04 02:52:47;;;;;;;9.60;7.50;;;;;;;15.05;58.74;97373.03;5010210;28;20196;-70
2022/05/04 02:55:12;;;;;;;9.47;7.67;;;;;;;15.08;58.79;97370.06;4991626;28;20192;-71
2022/05/04 02:57:38;;;;;;;9.00;7.17;;;;;;;15.14;58.23;97373.81;5008759;28;20439;-70
2022/05/04 03:00:04;;;;;;;7.80;7.00;;;;;;;15.12;58.44;97371.31;5003434;28;20189;-71
2022/05/04 03:02:30;;;;;;;7.90;7.03;;;;;;;15.09;58.90;97371.69;5009401;28;20218;-69
2022/05/04 03:05:06;;;;;;;8.67;7.77;;;;;;;15.16;58.92;97369.97;5010087;28;20424;-71
2022/05/04 03:07:32;;;;;;;8.33;7.33;;;;;;;15.29;58.90;97363.28;5003834;28;20184;-71
2022/05/04 03:09:58;;;;;;;8.07;7.30;;;;;;;15.40;58.71;97373.41;5003903;28;20543;-72
2022/05/04 03:12:24;;;;;;;8.90;8.00;;;;;;;15.48;58.36;97369.88;5002545;28;20204;-71
2022/05/04 03:14:50;;;;;;;9.83;7.60;;;;;;;15.41;58.42;97369.75;5004764;28;20431;-71
2022/05/04 03:17:17;;;;;;;8.80;7.90;;;;;;;15.33;58.67;97368.00;5008536;28;20431;-72
2022/05/04 03:19:43;;;;;;;9.20;7.83;;;;;;;15.33;58.48;97367.22;5009936;28;20208;-70
2022/05/04 03:22:08;;;;;;;8.63;6.87;;;;;;;15.26;58.41;97366.25;5011644;28;20496;-71
2022/05/04 03:24:34;;;;;;;8.80;7.90;;;;;;;15.29;58.44;97366.75;5009683;28;20473;-70
2022/05/04 03:26:59;;;;;;;9.43;7.63;;;;;;;15.29;58.84;97363.28;4992036;28;20216;-70
2022/05/04 03:29:25;;;;;;;9.83;8.20;;;;;;;15.40;58.56;97370.75;5007724;28;20235;-70
2022/05/04 03:31:50;;;;;;;9.97;7.93;;;;;;;15.33;58.94;97373.28;4987116;28;20215;-70
2022/05/04 03:34:16;;;;;;;8.93;8.07;;;;;;;15.31;58.95;97363.94;4995809;28;20216;-69
2022/05/04 03:36:41;;;;;;;7.60;6.90;;;;;;;15.38;58.83;97375.41;5008504;28;20232;-70
2022/05/04 03:39:07;;;;;;;8.80;8.00;;;;;;;15.35;59.13;97367.84;5009612;28;20727;-70
2022/05/04 03:41:33;;;;;;;12.70;8.53;;;;;;;15.25;59.10;97354.91;4998756;28;20551;-69
2022/05/04 03:44:00;;;;;;;9.83;7.67;;;;;;;15.34;59.19;97367.03;5010764;28;20434;-74
2022/05/04 03:46:27;;;;;;;9.97;7.70;;;;;;;15.30;58.78;97357.00;5013135;28;20461;-70
2022/05/04 03:48:54;;;;;;;10.50;7.67;;;;;;;15.33;58.96;97357.44;4998862;28;20472;-73
2022/05/04 03:51:20;;;;;;;8.40;7.50;;;;;;;15.29;59.00;97360.63;4992528;28;20820;-69
2022/05/04 03:53:50;;;;;;;10.73;8.37;;;;;;;15.17;59.38;97361.06;4996059;28;20438;-70
2022/05/04 03:56:16;;;;;;;12.37;8.10;;;;;;;15.10;60.00;97357.50;5013157;28;20435;-71
2022/05/04 03:58:42;;;;;;;9.20;7.77;;;;;;;15.09;60.15;97365.59;4994664;28;20973;-71
2022/05/04 04:01:08;;;;;;;9.70;8.70;;;;;;;14.99;60.32;97365.84;5013098;28;20423;-69
2022/05/04 04:03:34;;;;;;;9.90;8.50;;;;;;;15.05;60.05;97370.41;5013514;28;20428;-69
2022/05/04 04:05:59;;;;;;;10.03;8.90;;;;;;;15.13;60.55;97372.16;5013327;28;20601;-71
2022/05/04 04:08:25;;;;;;;9.50;7.80;;;;;;;15.13;60.16;97364.25;5012189;28;20534;-71
2022/05/04 04:10:51;;;;;;;9.47;8.50;;;;;;;15.21;60.28;97374.72;4995898;28;20191;-70
2022/05/04 04:13:17;;;;;;;9.33;8.10;;;;;;;15.36;59.92;97358.94;5012845;28;20239;-71
2022/05/04 04:15:42;;;;;;;8.90;8.00;;;;;;;15.48;59.68;97368.06;5012530;28;20198;-71
2022/05/04 04:18:08;;;;;;;11.90;9.43;;;;;;;15.52;59.52;97365.88;5012489;28;20235;-70
2022/05/04 04:23:19;;;;;;;10.87;8.43;;;;;;;15.39;60.07;97368.31;5011336;28;20435;-70
2022/05/04 04:25:44;;;;;;;9.27;8.37;;;;;;;15.36;59.80;97367.66;5013101;28;20442;-71
2022/05/04 04:28:10;;;;;;;11.00;8.97;;;;;;;15.30;60.15;97363.13;5012034;28;20210;-69
2022/05/04 04:30:39;;;;;;;12.80;10.20;;;;;;;15.42;60.08;97370.59;5012985;28;20184;-70
2022/05/04 04:33:06;;;;;;;12.60;9.80;;;;;;;15.50;59.89;97370.53;5010160;28;20216;-70
2022/05/04 04:35:35;;;;;;;16.00;12.60;;;;;;;15.39;59.65;97376.22;5010973;28;20527;-70
2022/05/04 04:38:01;;;;;;;11.67;9.73;;;;;;;15.40;59.61;97373.41;5011602;28;20459;-70
2022/05/04 04:40:26;;;;;;;11.60;10.13;;;;;;;15.46;60.19;97377.97;5012318;28;20441;-69
2022/05/04 04:42:52;;;;;;;10.93;9.63;;;;;;;15.50;60.12;97381.88;5011915;28;20435;-70
2022/05/04 04:45:17;;;;;;;12.60;10.87;;;;;;;15.52;59.81;97379.91;5012159;28;20223;-71
2022/05/04 04:47:46;;;;;;;14.70;12.57;;;;;;;15.47;60.18;97384.91;5012701;28;20185;-69
2022/05/04 04:50:12;;;;;;;17.93;11.70;;;;;;;15.48;59.83;97381.28;5009515;28;20266;-70
2022/05/04 04:52:38;;;;;;;16.50;11.87;;;;;;;15.44;60.61;97385.25;5011749;28;20547;-71
2022/05/04 04:55:04;;;;;;;14.97;11.80;;;;;;;15.46;60.51;97383.25;5011501;28;20212;-69
2022/05/04 04:57:30;;;;;;;18.53;12.93;;;;;;;15.48;60.18;97389.19;5012203;28;20195;-71
2022/05/04 04:59:55;;;;;;;15.60;12.53;;;;;;;15.57;60.60;97384.63;5011364;28;20464;-69
2022/05/04 05:02:21;;;;;;;12.27;10.97;;;;;;;15.61;60.44;97387.75;5012072;28;20231;-69
2022/05/04 05:04:46;;;;;;;21.17;12.07;;;;;;;15.59;60.31;97389.75;5011937;28;20238;-71
2022/05/04 05:07:12;;;;;;;17.53;12.33;;;;;;;15.59;60.33;97381.84;5011627;28;20679;-69
2022/05/04 05:09:37;;;;;;;12.87;11.57;;;;;;;15.45;60.37;97394.00;5010986;28;20220;-70
2022/05/04 05:12:03;;;;;;;13.67;12.37;;;;;;;15.55;60.15;97397.22;5011773;28;20627;-70
2022/05/04 05:17:12;;;;;;;17.37;11.80;;;;;;;15.68;60.42;97399.22;4993092;28;20193;-69
2022/05/04 05:19:38;;;;;;;16.07;12.50;;;;;;;15.64;60.60;97403.22;5011760;28;20458;-70
2022/05/04 05:22:04;;;;;;;13.50;11.60;;;;;;;15.76;60.56;97401.78;4996429;28;20546;-69
2022/05/04 05:24:29;;;;;;;13.97;10.20;;;;;;;15.87;60.33;97410.31;5009455;28;20662;-71
2022/05/04 05:26:55;;;;;;;12.13;10.17;;;;;;;15.90;60.33;97409.94;4993382;28;20196;-70
2022/05/04 05:29:20;;;;;;;11.13;9.60;;;;;;;16.01;60.14;97409.50;5012026;28;20211;-70
2022/05/04 05:31:46;;;;;;;10.47;9.47;;;;;;;16.04;60.13;97403.03;5010560;28;20220;-70
2022/05/04 05:34:11;;;;;;;13.83;9.20;;;;;;;16.09;59.71;97405.94;5010418;28;20212;-71
2022/05/04 05:36:37;;;;;;;9.63;8.63;;;;;;;16.08;59.91;97405.13;5011201;28;20268;-71
2022/05/04 05:39:03;;;;;;;11.80;9.50;;;;;;;16.11;60.08;97404.78;5010274;28;20247;-71
2022/05/04 05:41:28;;;;;;;10.60;9.60;;;;;;;16.13;60.20;97404.59;4995172;28;20184;-70
2022/05/04 05:43:54;;;;;;;12.97;8.73;;;;;;;16.13;60.12;97415.97;5021702;28;20435;-71
2022/05/04 05:46:19;;;;;;;11.10;10.00;;;;;;;16.04;60.66;97406.50;5013865;28;20290;-69
2022/05/04 05:48:47;;;;;;;12.70;10.27;;;;;;;16.10;60.90;97405.78;5008953;28;20205;-70
2022/05/04 05:51:13;;;;;;;11.33;10.03;;;;;;;16.23;60.88;97413.06;5005875;28;20192;-70
2022/05/04 05:53:38;;;;;;;12.30;9.87;;;;;;;16.29;60.42;97411.50;5011261;28;20455;-69
2022/05/04 05:56:04;;;;;;;14.80;9.53;;;;;;;16.23;61.03;97410.41;5010731;28;20477;-70
2022/05/04 05:58:30;;;;;;;10.33;9.33;;;;;;;16.28;60.99;97412.50;5010613;28;20569;-70
2022/05/04 06:00:55;;;;;;;12.17;11.07;;;;;;;16.30;61.26;97413.13;5010730;28;20431;-69
2022/05/04 06:03:22;;;;;;;11.90;10.77;;;;;;;16.35;61.25;97413.41;5010906;28;20176;-70
2022/05/04 06:05:47;;;;;;;15.07;11.47;;;;;;;16.39;60.98;97408.56;5010667;28;20184;-68
2022/05/04 06:08:13;;;;;;;12.90;11.30;;;;;;;16.43;61.03;97409.84;5010946;28;20443;-68
2022/05/04 06:10:39;;;;;;;20.00;10.53;;;;;;;16.42;61.49;97421.44;5011410;28;20188;-68
2022/05/04 06:13:05;;;;;;;12.17;9.40;;;;;;;16.47;60.91;97415.59;5011105;28;20255;-68
2022/05/04 06:15:31;;;;;;;12.17;10.33;;;;;;;16.47;60.98;97415.59;5011368;28;20427;-68
2022/05/04 06:17:56;;;;;;;12.63;9.87;;;;;;;16.52;61.24;97423.78;5011045;28;20481;-70
2022/05/04 06:20:23;;;;;;;15.67;9.93;;;;;;;16.47;61.50;97420.88;5013034;28;20610;-69
2022/05/04 06:22:50;;;;;;;14.80;10.00;;;;;;;16.49;61.64;97421.53;5011257;28;20233;-68
2022/05/04 06:25:15;;;;;;;14.97;9.93;;;;;;;16.48;61.94;97430.47;5011212;28;20436;-70
2022/05/04 06:27:41;;;;;;;14.57;10.63;;;;;;;16.53;62.27;97423.59;5010390;28;20539;-70
2022/05/04 06:35:35;;;;;;;15.20;9.23;;;;;;;16.70;61.20;97432.16;5008834;28;20791;-69
2022/05/04 06:38:01;;;;;;;8.87;8.07;;;;;;;16.76;60.90;97430.59;5010589;28;20482;-70
2022/05/04 06:40:26;;;;;;;8.33;7.50;;;;;;;16.83;59.95;97431.47;5010462;28;20187;-70
2022/05/04 06:42:52;;;;;;;10.57;8.27;;;;;;;16.90;59.52;97436.84;5008310;28;20184;-70
2022/05/04 06:45:17;;;;;;;9.43;7.07;;;;;;;16.95;59.52;97434.50;5005110;28;20239;-69
2022/05/04 06:47:43;;;;;;;11.50;7.20;;;;;;;16.98;59.05;97439.41;5007405;28;20188;-70
2022/05/04 06:50:10;;;;;;;8.30;6.80;;;;;;;16.95;58.68;97445.06;4991389;28;20224;-71
2022/05/04 06:52:37;;;;;;;6.87;6.27;;;;;;;16.98;57.54;97439.41;5008557;28;20607;-69
2022/05/04 06:55:04;;;;;;;9.27;7.03;;;;;;;17.08;57.33;97440.94;4991494;28;20435;-70
2022/05/04 06:57:29;;;;;;;10.53;7.10;;;;;;;17.11;56.90;97440.56;5008884;28;20968;-69
2022/05/04 06:59:55;;;;;;;7.67;6.83;;;;;;;17.16;56.73;97443.44;5009596;28;20466;-69
2022/05/04 07:02:21;;;;;;;14.97;6.80;;;;;;;17.23;56.93;97440.88;5010506;28;20192;-69
2022/05/04 07:04:47;;;;;;;7.37;6.30;;;;;;;17.35;56.88;97442.00;5010836;28;20202;-69
2022/05/04 07:07:12;;;;;;;5.87;5.37;;;;;;;17.28;55.02;97447.22;5011546;28;20219;-68
2022/05/04 07:09:38;;;;;;;10.20;5.60;;;;;;;17.37;55.09;97447.13;4993168;28;20243;-69
2022/05/04 07:12:04;;;;;;;6.50;5.57;;;;;;;17.44;54.93;97440.03;4993224;28;20864;-69
2022/05/04 07:14:30;;;;;;;5.90;5.40;;;;;;;17.53;55.11;97448.69;5010910;28;20828;-70
2022/05/04 07:16:55;;;;;;;6.20;5.60;;;;;;;17.58;54.81;97444.44;5012359;28;20427;-68
2022/05/04 07:19:21;;;;;;;6.07;5.47;;;;;;;17.68;55.19;97443.28;5014350;28;20200;-69
2022/05/04 07:21:46;;;;;;;5.83;5.33;;;;;;;17.75;55.59;97438.88;5016739;28;20222;-71
2022/05/04 07:24:12;;;;;;;6.40;5.40;;;;;;;17.74;54.75;97442.53;5012835;28;20180;-69
2022/05/04 07:26:39;;;;;;;6.73;6.13;;;;;;;17.77;54.32;97442.97;5014141;28;20196;-69
2022/05/04 07:29:05;;;;;;;6.00;5.43;;;;;;;17.82;54.50;97445.03;4996455;28;20200;-69
2022/05/04 07:31:30;;;;;;;10.20;6.87;;;;;;;17.85;54.89;97447.31;5014505;28;20435;-69
2022/05/04 07:33:55;;;;;;;8.17;6.40;;;;;;;17.89;55.02;97450.38;4997196;28;20184;-69
2022/05/04 07:36:21;;;;;;;10.80;6.70;;;;;;;17.92;55.15;97447.34;5013209;28;20189;-70
2022/05/04 07:38:46;;;;;;;6.90;6.30;;;;;;;17.93;55.02;97457.75;5013549;28;20207;-69
2022/05/04 07:43:56;;;;;;;9.27;6.37;;;;;;;18.02;54.66;97460.31;5010320;28;20539;-69
2022/05/04 07:46:23;;;;;;;7.10;6.40;;;;;;;18.09;54.73;97450.56;5013881;28;20589;-69
2022/05/04 07:48:48;;;;;;;8.97;6.53;;;;;;;18.12;54.81;97455.47;4996673;28;20538;-69
2022/05/04 07:51:14;;;;;;;9.87;6.67;;;;;;;18.16;54.95;97451.41;5013731;28;20247;-69
2022/05/04 07:53:39;;;;;;;6.67;6.07;;;;;;;18.17;54.78;97453.03;5014296;28;20683;-70
2022/05/04 07:56:05;;;;;;;9.67;6.33;;;;;;;18.17;55.09;97460.19;5014312;28;20642;-71
2022/05/04 07:58:30;;;;;;;8.63;6.67;;;;;;;18.20;55.13;97451.84;5014603;28;20219;-69
2022/05/04 08:06:24;;;;;;;6.43;5.83;;;;;;;18.29;54.90;97450.69;5014072;28;20887;-71
2022/05/04 08:08:49;;;;;;;7.50;6.10;;;;;;;18.34;54.89;97456.19;5013749;28;20447;-70
2022/05/04 08:11:15;;;;;;;9.87;6.70;;;;;;;18.41;55.32;97466.84;5013550;28;20191;-68
2022/05/04 08:13:40;;;;;;;14.60;6.37;;;;;;;18.43;55.59;97467.47;5013417;28;20762;-69
2022/05/04 08:16:07;;;;;;;9.70;6.90;;;;;;;18.41;56.25;97458.88;4995111;28;20187;-71
2022/05/04 08:18:33;;;;;;;7.93;7.20;;;;;;;18.41;56.28;97472.16;5013186;28;20639;-69
2022/05/04 08:20:59;;;;;;;8.93;6.87;;;;;;;18.41;55.75;97474.81;5015489;28;20439;-69
2022/05/04 08:23:25;;;;;;;10.40;6.30;;;;;;;18.35;55.75;97470.28;5001326;28;20200;-69
2022/05/04 08:25:50;;;;;;;9.20;6.60;;;;;;;18.34;55.88;97473.97;5013633;28;20513;-70
2022/05/04 08:28:17;;;;;;;8.43;6.57;;;;;;;18.28;56.03;97472.91;5012663;28;20303;-69
2022/05/04 08:30:43;;;;;;;8.23;6.30;;;;;;;18.29;56.15;97485.16;5013103;28;20618;-69
2022/05/04 08:33:08;;;;;;;6.83;6.13;;;;;;;18.25;56.23;97482.09;5012474;28;20506;-68
2022/05/04 08:35:34;;;;;;;7.83;6.50;;;;;;;18.18;56.96;97477.75;5013116;28;20700;-69
2022/05/04 08:38:00;;;;;;;7.23;6.40;;;;;;;18.12;57.54;97482.00;5012108;28;20271;-69
2022/05/04 08:40:25;;;;;;;8.30;6.40;;;;;;;18.02;58.07;97476.22;4995875;28;20223;-71
2022/05/04 08:42:51;;;;;;;7.77;6.77;;;;;;;18.00;58.71;97478.25;5013137;28;20184;-69
2022/05/04 08:45:17;;;;;;;6.57;5.97;;;;;;;17.96;59.26;97480.41;5013084;28;20188;-68
2022/05/04 08:47:45;;;;;;;8.87;6.03;;;;;;;18.00;58.56;97487.00;5012735;28;20976;-70
2022/05/04 08:50:14;;;;;;;6.53;5.90;;;;;;;18.05;57.99;97481.13;4995489;28;20686;-68
2022/05/04 08:52:43;;;;;;;5.47;5.00;;;;;;;18.13;57.65;97483.63;5012280;28;20470;-69
2022/05/04 08:55:10;;;;;;;6.53;5.40;;;;;;;18.22;57.17;97481.63;5013056;28;20428;-69
2022/05/04 08:57:37;;;;;;;6.80;6.10;;;;;;;18.21;56.92;97483.47;5011451;28;21114;-68
2022/05/04 09:00:04;;;;;;;7.13;5.57;;;;;;;18.24;56.87;97490.22;5012613;28;20880;-69
2022/05/04 09:02:29;;;;;;;6.03;5.27;;;;;;;18.30;56.99;97488.63;5012531;28;20424;-69
2022/05/04 09:04:55;;;;;;;6.93;5.70;;;;;;;18.34;57.51;97481.91;5012465;28;20474;-71
2022/05/04 09:07:21;;;;;;;6.10;5.50;;;;;;;18.42;57.69;97476.44;5012013;28;20279;-68
2022/05/04 09:09:47;;;;;;;6.33;5.40;;;;;;;18.49;57.29;97476.47;5012745;28;20215;-68
2022/05/04 09:12:15;;;;;;;14.57;5.97;;;;;;;18.62;56.89;97481.84;4946372;28;20456;-69
2022/05/04 09:14:42;;;;;;;6.40;5.70;;;;;;;18.71;56.65;97474.56;5012625;28;20226;-69
2022/05/04 09:17:17;;;;;;;6.63;5.77;;;;;;;18.84;57.17;97474.59;5011876;28;20483;-69
2022/05/04 09:22:40;;;;;;;8.83;5.87;;;;;;;19.08;55.59;97469.81;5011367;28;20427;-69
2022/05/04 09:25:16;;;;;;;8.33;5.50;;;;;;;19.20;55.17;97467.38;5012035;28;20506;-70
2022/05/04 09:27:42;;;;;;;5.07;4.53;;;;;;;19.33;55.03;97463.94;4989129;28;20175;-70
2022/05/04 09:30:08;;;;;;;6.20;5.07;;;;;;;19.49;55.21;97465.38;5011548;28;20860;-70
2022/05/04 09:32:39;;;;;;;11.80;5.37;;;;;;;19.65;54.88;97464.97;5014379;28;20217;-69
2022/05/04 09:35:04;;;;;;;5.50;5.00;;;;;;;19.84;54.12;97456.38;5012206;28;20623;-69
2022/05/04 09:45:57;;;;;;;9.83;5.60;;;;;;;20.52;53.18;97465.91;5012235;28;20439;-68
2022/05/04 09:48:33;;;;;;;5.33;4.83;;;;;;;20.55;52.33;97468.13;5011583;28;20462;-68
2022/05/04 09:51:08;;;;;;;7.67;4.50;;;;;;;20.55;52.80;97463.66;5015724;28;20466;-68
2022/05/04 09:53:36;;;;;;;5.27;4.80;;;;;;;20.78;53.53;97462.34;5005154;28;20466;-69
2022/05/04 09:56:02;;;;;;;6.70;5.70;;;;;;;21.01;53.07;97458.34;5011917;28;20435;-68
2022/05/04 09:58:29;;;;;;;6.60;5.13;;;;;;;21.37;53.00;97453.41;5011778;28;20454;-69
2022/05/04 10:00:59;;;;;;;18.07;6.53;;;;;;;21.48;51.58;97453.53;5011783;28;20439;-68
2022/05/04 10:03:25;;;;;;;6.60;5.60;;;;;;;21.84;51.96;97459.22;4985692;28;20476;-69
2022/05/04 10:05:51;;;;;;;6.13;5.63;;;;;;;22.18;51.18;97454.38;5011613;28;20807;-68
2022/05/04 10:08:17;;;;;;;7.83;4.90;;;;;;;22.46;49.48;97445.09;5011064;28;20937;-69
2022/05/04 10:10:43;;;;;;;7.10;6.40;;;;;;;22.54;49.33;97447.47;5011844;28;20514;-68
2022/05/04 10:13:09;;;;;;;6.53;5.80;;;;;;;22.84;48.48;97446.69;5011551;28;20620;-68
2022/05/04 10:15:36;;;;;;;6.50;5.80;;;;;;;23.07;48.08;97449.69;5012082;28;20226;-69
2022/05/04 10:18:06;;;;;;;10.17;6.40;;;;;;;23.32;47.45;97452.22;5009814;28;20427;-69
2022/05/04 10:20:39;;;;;;;12.53;7.07;;;;;;;23.50;46.71;97442.50;4996068;28;20481;-68
2022/05/04 10:23:12;;;;;;;16.20;8.90;;;;;;;23.50;45.53;97435.31;4993955;28;20427;-68
2022/05/04 10:25:38;;;;;;;9.47;7.83;;;;;;;23.40;45.77;97443.88;4994149;28;20460;-68
2022/05/04 10:28:08;;;;;;;8.33;7.60;;;;;;;23.20;45.48;97438.84;5010762;28;20502;-68
2022/05/04 10:30:34;;;;;;;8.90;8.00;;;;;;;23.21;45.59;97436.97;5011348;28;20431;-68
2022/05/04 10:33:08;;;;;;;11.83;8.20;;;;;;;23.13;46.85;97430.06;5010818;28;20580;-68
2022/05/04 10:35:41;;;;;;;11.40;8.07;;;;;;;23.63;47.11;97427.03;5008070;28;20431;-68
2022/05/04 10:38:10;;;;;;;9.30;8.40;;;;;;;24.07;46.66;97428.59;4991166;28;20447;-69
2022/05/04 10:40:50;;;;;;;8.03;7.23;;;;;;;24.44;44.88;97422.97;5011268;28;20455;-68
2022/05/04 10:43:45;;;;;;;7.57;6.77;;;;;;;24.56;42.67;97422.94;4993189;28;20439;-69
2022/05/04 10:46:17;;;;;;;5.80;5.27;;;;;;;24.74;42.28;97423.81;4993908;28;20922;-68
2022/05/04 10:48:44;;;;;;;6.40;5.80;;;;;;;24.71;41.81;97421.63;5010876;28;20843;-68
2022/05/04 10:51:11;;;;;;;7.17;6.20;;;;;;;24.87;41.77;97422.75;5012456;28;20435;-69
2022/05/04 10:53:43;;;;;;;6.37;5.87;;;;;;;25.18;40.61;97416.06;5015118;28;20515;-68
2022/05/04 10:56:17;;;;;;;7.40;4.80;;;;;;;25.52;39.96;97409.94;5015098;28;20482;-68
2022/05/04 10:58:44;;;;;;;5.30;4.80;;;;;;;25.78;38.33;97408.47;5012917;28;20451;-70
2022/05/04 11:01:10;;;;;;;7.90;4.70;;;;;;;26.02;37.65;97402.88;5014509;28;20999;-69
2022/05/04 11:03:38;;;;;;;5.13;4.63;;;;;;;26.19;36.33;97398.31;5014607;28;20431;-70
2022/05/04 11:06:21;;;;;;;6.37;4.93;;;;;;;26.38;36.03;97392.63;5014579;28;20184;-69
2022/05/04 11:08:48;;;;;;;5.20;4.60;;;;;;;26.45;34.46;97404.03;5014431;28;20454;-69
2022/05/04 11:11:14;;;;;;;4.90;4.43;;;;;;;26.74;35.25;97401.09;5014539;28;20474;-69
2022/05/04 11:13:43;;;;;;;5.00;4.37;;;;;;;26.97;34.62;97401.88;4996865;28;20494;-69
2022/05/04 11:16:09;;;;;;;9.20;4.07;;;;;;;27.22;33.79;97401.34;5013849;28;20262;-69
2022/05/04 11:18:35;;;;;;;9.90;4.53;;;;;;;27.52;33.32;97391.94;4999499;28;20443;-69
2022/05/04 11:21:05;;;;;;;4.73;4.20;;;;;;;27.67;31.65;97395.78;5014076;28;20518;-69
2022/05/04 11:23:31;;;;;;;4.10;3.80;;;;;;;27.39;31.33;97390.44;4997998;28;20489;-69
2022/05/04 11:25:56;;;;;;;7.40;4.77;;;;;;;27.29;31.60;97393.84;5014757;28;20522;-69
2022/05/04 11:28:23;;;;;;;10.30;4.20;;;;;;;27.12;32.54;97385.09;5016548;28;21018;-67
2022/05/04 11:30:48;;;;;;;5.17;3.87;;;;;;;27.23;32.99;97378.75;4997168;28;20550;-70
2022/05/04 11:33:14;;;;;;;3.43;3.13;;;;;;;27.33;32.66;97391.47;5013312;28;20467;-70
2022/05/04 11:35:43;;;;;;;3.30;3.00;;;;;;;27.32;31.63;97391.72;5014267;28;20207;-69
2022/05/04 11:38:19;;;;;;;3.87;3.40;;;;;;;27.26;32.38;97390.88;5014095;28;21081;-69
2022/05/04 11:40:49;;;;;;;3.97;3.10;;;;;;;27.34;31.67;97378.81;5014302;28;20480;-70
2022/05/04 11:43:21;;;;;;;3.37;3.07;;;;;;;27.22;30.75;97387.88;5014246;28;20431;-68
2022/05/04 11:45:48;;;;;;;8.30;3.20;;;;;;;26.95;30.31;97385.22;4996638;28;20458;-69
2022/05/04 11:48:14;;;;;;;4.00;3.60;;;;;;;26.70;30.86;97386.56;5013603;28;20475;-69
2022/05/04 11:50:42;;;;;;;4.47;3.57;;;;;;;26.60;32.20;97391.78;4996439;28;20570;-69
2022/05/04 11:53:07;;;;;;;3.60;3.20;;;;;;;26.29;31.57;97384.19;5013727;28;20209;-70
2022/05/04 11:55:34;;;;;;;5.40;3.80;;;;;;;26.16;31.04;97384.56;5014128;28;20419;-69
2022/05/04 11:58:00;;;;;;;6.43;2.90;;;;;;;26.25;32.29;97387.63;5013215;28;20186;-69
2022/05/04 12:00:26;;;;;;;3.37;2.83;;;;;;;26.21;31.25;97388.13;5014146;28;20993;-70
2022/05/04 12:02:51;;;;;;;5.10;3.07;;;;;;;25.95;32.43;97386.16;5013341;28;20660;-69